Time;durP1;ratioP1;P1;durP2;ratioP2;P2;SDS_P1;SDS_P2;PMS_P1;PMS_P2;Temp;Humidity;BMP_temperature;BMP_pressure;BME280_temperature;BME280_humidity;BME280_pressure;Samples;Min_cycle;Max_cycle;Signal;HPM_P1;HPM_P2
2024/03/29 05:50:04;;;;;;;39.90;15.40;;;;;;;6.37;100.00;99412.64;107360;1275;22627;-53
2024/03/29 05:52:32;;;;;;;38.50;15.70;;;;;;;6.47;100.00;99407.80;106920;1253;25468;-53
2024/03/29 05:55:06;;;;;;;48.70;19.00;;;;;;;6.53;100.00;99401.06;107251;1276;22537;-46
2024/03/29 05:57:37;;;;;;;46.20;17.50;;;;;;;6.60;100.00;99397.79;107947;1257;22522;-44
2024/03/29 06:00:06;;;;;;;37.30;16.50;;;;;;;6.70;100.00;99403.69;107110;1276;25281;-53
2024/03/29 06:02:34;;;;;;;32.70;14.50;;;;;;;6.78;100.00;99401.96;107306;1276;22547;-48
2024/03/29 06:05:01;;;;;;;34.00;14.80;;;;;;;6.85;100.00;99400.77;108784;1260;22543;-48
2024/03/29 06:07:29;;;;;;;37.60;16.40;;;;;;;6.94;100.00;99398.34;108525;1276;22285;-53
2024/03/29 06:09:56;;;;;;;47.20;17.30;;;;;;;7.04;100.00;99397.65;107897;1256;24166;-54
2024/03/29 06:12:24;;;;;;;32.30;15.40;;;;;;;7.15;100.00;99394.18;107214;1270;25341;-48
2024/03/29 06:17:38;;;;;;;44.60;16.90;;;;;;;7.49;100.00;99380.60;109298;1269;23911;-46
2024/03/29 06:20:06;;;;;;;39.20;17.20;;;;;;;7.68;100.00;99378.48;107204;1260;22534;-53
2024/03/29 06:22:33;;;;;;;42.00;16.00;;;;;;;7.88;100.00;99375.11;108113;1276;22503;-52
2024/03/29 06:25:07;;;;;;;34.20;15.30;;;;;;;8.09;100.00;99370.52;110218;1276;22415;-50
2024/03/29 06:27:35;;;;;;;38.70;15.40;;;;;;;8.28;100.00;99367.11;110132;1276;22281;-44
2024/03/29 06:30:03;;;;;;;39.50;16.20;;;;;;;8.46;100.00;99358.88;110145;1276;22929;-45
2024/03/29 06:32:31;;;;;;;38.30;15.90;;;;;;;8.63;100.00;99355.80;110117;1276;23203;-45
2024/03/29 06:34:59;;;;;;;38.70;17.20;;;;;;;8.81;100.00;99356.36;110075;1276;23103;-51
2024/03/29 06:37:28;;;;;;;33.40;17.50;;;;;;;8.99;100.00;99357.60;110126;1276;22698;-51
2024/03/29 06:39:55;;;;;;;32.40;16.20;;;;;;;9.17;100.00;99356.24;110030;1276;22863;-45
2024/03/29 06:42:22;;;;;;;34.50;16.90;;;;;;;9.33;100.00;99354.51;110082;1276;22257;-45
2024/03/29 06:44:50;;;;;;;41.80;19.90;;;;;;;9.51;100.00;99364.08;110185;1276;23003;-46
2024/03/29 06:47:18;;;;;;;35.10;17.50;;;;;;;9.66;100.00;99363.91;107990;1276;22543;-53
2024/03/29 06:49:46;;;;;;;41.70;19.40;;;;;;;9.82;100.00;99364.26;108100;1276;22523;-53
2024/03/29 06:52:13;;;;;;;45.70;19.40;;;;;;;9.98;100.00;99366.34;107442;1276;22509;-44
2024/03/29 06:54:41;;;;;;;42.70;18.00;;;;;;;10.11;100.00;99372.43;107467;1271;22133;-45
2024/03/29 06:57:10;;;;;;;33.40;16.10;;;;;;;10.24;100.00;99373.52;107698;1276;22622;-46
2024/03/29 06:59:39;;;;;;;29.50;14.60;;;;;;;10.33;100.00;99376.55;107209;1276;24181;-46
2024/03/29 07:02:07;;;;;;;39.40;15.60;;;;;;;10.39;100.00;99372.62;107529;1276;24303;-53
2024/03/29 07:04:34;;;;;;;32.10;14.80;;;;;;;10.45;100.00;99375.70;108995;1273;23222;-45
2024/03/29 07:07:02;;;;;;;43.80;17.80;;;;;;;10.49;100.00;99378.94;110213;1276;22268;-46
2024/03/29 07:09:29;;;;;;;44.90;18.70;;;;;;;10.52;100.00;99379.42;110198;1276;23072;-46
2024/03/29 07:11:58;;;;;;;36.30;16.30;;;;;;;10.55;100.00;99381.10;110209;1276;23235;-51
2024/03/29 07:14:26;;;;;;;28.10;13.80;;;;;;;10.59;100.00;99379.47;110148;1276;22439;-51
2024/03/29 07:16:54;;;;;;;32.40;13.20;;;;;;;10.62;100.00;99376.66;110244;1258;22426;-45
2024/03/29 07:19:22;;;;;;;37.40;13.20;;;;;;;10.65;100.00;99376.42;109501;1276;22533;-44
2024/03/29 07:21:52;;;;;;;34.50;12.30;;;;;;;10.68;100.00;99380.94;107458;1276;22915;-51
2024/03/29 07:24:20;;;;;;;36.80;13.20;;;;;;;10.68;100.00;99379.54;108366;1276;22571;-45
2024/03/29 07:26:47;;;;;;;33.80;12.30;;;;;;;10.71;100.00;99380.02;107322;1277;22535;-46
2024/03/29 07:29:14;;;;;;;24.80;11.60;;;;;;;10.75;100.00;99378.37;107571;1276;23331;-51
2024/03/29 07:31:43;;;;;;;29.00;11.10;;;;;;;10.82;100.00;99378.45;108141;1276;22946;-52
2024/03/29 07:34:10;;;;;;;25.40;10.50;;;;;;;10.91;100.00;99377.60;109672;1276;22870;-46
2024/03/29 07:36:39;;;;;;;27.50;11.30;;;;;;;11.02;100.00;99376.20;110213;1269;22244;-45
2024/03/29 07:39:06;;;;;;;26.70;11.40;;;;;;;11.13;100.00;99376.20;110211;1272;22404;-51
2024/03/29 07:41:34;;;;;;;26.80;10.60;;;;;;;11.26;100.00;99381.39;110191;1276;22446;-52
2024/03/29 07:44:08;;;;;;;26.30;10.20;;;;;;;11.38;100.00;99382.22;110122;1276;23259;-46
2024/03/29 07:46:36;;;;;;;25.80;9.00;;;;;;;11.49;100.00;99375.56;110116;1273;23009;-47
2024/03/29 07:49:04;;;;;;;30.30;8.90;;;;;;;11.61;100.00;99371.32;109988;1272;23236;-46
2024/03/29 07:51:31;;;;;;;22.20;9.20;;;;;;;11.77;100.00;99373.48;110047;1271;22410;-46
2024/03/29 07:53:59;;;;;;;20.50;9.10;;;;;;;11.95;100.00;99368.42;110153;1272;22243;-51
2024/03/29 07:56:26;;;;;;;25.70;9.30;;;;;;;12.15;100.00;99360.32;109917;1269;22391;-46
2024/03/29 07:58:54;;;;;;;25.20;8.20;;;;;;;12.35;100.00;99360.93;109825;1270;22403;-52
2024/03/29 08:01:21;;;;;;;22.50;7.70;;;;;;;12.56;100.00;99361.52;109812;1263;22352;-47
2024/03/29 08:03:54;;;;;;;;;;;;;;;12.76;100.00;99352.82;110150;1276;23589;-53
2024/03/29 08:06:23;;;;;;;14.90;6.30;;;;;;;12.97;100.00;99348.65;110125;1276;22671;-53
2024/03/29 08:08:50;;;;;;;22.40;6.40;;;;;;;13.19;100.00;99338.65;110066;1272;22198;-53
2024/03/29 08:11:18;;;;;;;22.70;8.00;;;;;;;13.44;100.00;99339.06;109858;1273;22486;-51
2024/03/29 08:13:45;;;;;;;23.10;8.60;;;;;;;13.68;100.00;99332.81;110151;1276;22731;-52
2024/03/29 08:16:13;;;;;;;19.50;7.10;;;;;;;13.89;99.00;99328.17;110145;1272;22443;-46
2024/03/29 08:18:40;;;;;;;23.90;6.70;;;;;;;14.07;97.63;99320.10;110070;1276;22931;-46
2024/03/29 08:21:11;;;;;;;22.50;5.50;;;;;;;14.25;96.31;99314.65;110078;1271;23178;-46
2024/03/29 08:23:39;;;;;;;18.10;6.00;;;;;;;14.41;93.30;99317.50;110052;1270;22550;-46
2024/03/29 08:26:07;;;;;;;19.90;5.80;;;;;;;14.53;91.20;99312.77;110034;1273;23440;-54
2024/03/29 08:28:37;;;;;;;15.60;5.90;;;;;;;14.62;91.44;99312.50;109979;1271;22268;-52
2024/03/29 08:31:06;;;;;;;13.80;4.90;;;;;;;14.78;92.33;99306.33;110060;1270;23169;-46
2024/03/29 08:33:33;;;;;;;15.20;5.40;;;;;;;15.02;92.13;99290.25;110092;1275;22955;-46
2024/03/29 08:36:00;;;;;;;15.40;5.20;;;;;;;15.28;91.31;99283.03;110044;1271;22927;-51
2024/03/29 08:38:28;;;;;;;11.50;5.40;;;;;;;15.41;86.78;99271.34;110123;1270;22361;-51
2024/03/29 08:40:55;;;;;;;12.70;5.10;;;;;;;15.35;83.36;99260.82;110153;1273;22678;-46
2024/03/29 08:43:23;;;;;;;13.40;4.60;;;;;;;15.27;84.53;99260.45;110139;1270;22471;-51
2024/03/29 08:45:50;;;;;;;19.80;5.20;;;;;;;15.17;84.29;99262.37;110150;1272;23153;-52
2024/03/29 08:48:18;;;;;;;10.30;4.90;;;;;;;15.09;84.48;99268.63;110164;1270;22383;-51
2024/03/29 08:50:46;;;;;;;12.80;4.80;;;;;;;15.02;82.86;99259.19;110124;1269;22439;-51
2024/03/29 08:53:13;;;;;;;7.70;5.00;;;;;;;14.98;81.03;99245.31;109977;1270;22615;-52
2024/03/29 08:55:41;;;;;;;11.50;6.40;;;;;;;14.93;81.09;99232.80;110053;1270;22483;-52
2024/03/29 08:58:08;;;;;;;14.50;6.90;;;;;;;14.89;80.92;99214.15;110094;1276;23073;-47
2024/03/29 09:00:36;;;;;;;12.40;6.80;;;;;;;14.88;81.88;99231.22;110045;1276;22497;-46
2024/03/29 09:03:03;;;;;;;14.70;6.40;;;;;;;14.90;82.88;99243.63;110101;1270;22246;-46
2024/03/29 09:05:31;;;;;;;12.40;4.00;;;;;;;14.97;83.45;99236.35;110107;1272;22289;-52
2024/03/29 09:07:58;;;;;;;5.10;2.40;;;;;;;15.06;79.97;99220.60;110079;1276;22427;-46
2024/03/29 09:10:28;;;;;;;8.80;2.20;;;;;;;15.16;75.05;99216.38;110117;1272;22415;-46
2024/03/29 09:12:56;;;;;;;6.00;2.30;;;;;;;15.27;73.51;99210.73;110142;1275;22367;-52
2024/03/29 09:15:23;;;;;;;4.00;2.10;;;;;;;15.37;72.56;99208.94;110073;1276;22279;-52
2024/03/29 09:17:54;;;;;;;10.80;2.00;;;;;;;15.48;72.91;99204.69;110113;1272;23419;-45
2024/03/29 09:20:21;;;;;;;4.30;2.10;;;;;;;15.57;74.29;99202.22;110090;1270;23102;-45
2024/03/29 09:22:51;;;;;;;5.60;2.00;;;;;;;15.65;74.63;99206.17;110086;1273;22837;-46
2024/03/29 09:25:19;;;;;;;5.70;2.10;;;;;;;15.71;73.32;99201.55;110167;1273;23066;-45
2024/03/29 09:27:48;;;;;;;6.20;2.40;;;;;;;15.75;71.17;99195.10;110108;1276;22387;-45
2024/03/29 09:30:15;;;;;;;7.60;2.70;;;;;;;15.79;70.71;99180.14;110168;1276;22275;-52
2024/03/29 09:32:43;;;;;;;8.10;2.60;;;;;;;15.86;70.36;99173.35;110198;1276;22880;-46
2024/03/29 09:35:10;;;;;;;4.60;2.20;;;;;;;15.95;69.49;99165.61;110194;1262;22470;-52
2024/03/29 09:37:39;;;;;;;5.60;2.70;;;;;;;16.04;68.17;99155.95;109516;1276;22544;-46
2024/03/29 09:40:07;;;;;;;4.60;2.00;;;;;;;16.11;67.73;99154.23;108143;1276;25223;-46
2024/03/29 09:42:35;;;;;;;7.40;2.40;;;;;;;16.15;67.12;99143.16;107604;1276;23330;-51
2024/03/29 09:45:05;;;;;;;5.20;1.70;;;;;;;16.17;67.63;99146.27;109443;1276;23228;-45
2024/03/29 09:47:33;;;;;;;5.30;2.10;;;;;;;16.14;67.03;99142.90;108580;1277;25313;-53
2024/03/29 09:50:03;;;;;;;5.20;2.10;;;;;;;16.10;68.21;99134.95;109139;1276;22470;-51
2024/03/29 09:52:34;;;;;;;7.40;3.20;;;;;;;16.06;68.06;99124.56;109015;1276;22987;-45
2024/03/29 09:55:02;;;;;;;6.80;3.30;;;;;;;16.04;66.97;99124.82;108185;1277;22633;-45
2024/03/29 09:57:30;;;;;;;12.80;4.60;;;;;;;16.02;66.94;99122.95;110052;1270;22768;-51
2024/03/29 09:59:57;;;;;;;12.80;3.80;;;;;;;15.99;67.45;99117.47;110092;1273;22525;-45
2024/03/29 10:02:28;;;;;;;8.70;3.60;;;;;;;15.93;67.26;99114.72;110032;1270;22354;-53
2024/03/29 10:04:57;;;;;;;8.20;2.90;;;;;;;15.89;67.91;99121.02;109695;1276;22542;-51
2024/03/29 10:07:25;;;;;;;8.00;3.20;;;;;;;15.85;68.14;99127.69;109651;1276;22445;-50
2024/03/29 10:09:54;;;;;;;10.30;3.00;;;;;;;15.83;68.76;99135.67;109872;1273;22274;-51
2024/03/29 10:12:22;;;;;;;6.80;3.60;;;;;;;15.83;69.62;99146.06;109854;1273;205717;-51
2024/03/29 10:14:52;;;;;;;9.20;4.20;;;;;;;15.82;69.38;99156.64;109762;1276;22458;-46
2024/03/29 10:17:19;;;;;;;9.20;4.40;;;;;;;15.83;69.79;99163.11;109911;1272;22386;-51
2024/03/29 10:19:47;;;;;;;12.00;3.60;;;;;;;15.85;70.78;99157.06;110094;1272;23147;-51
2024/03/29 10:22:14;;;;;;;9.20;2.40;;;;;;;15.87;71.50;99148.16;110099;1276;22444;-46
2024/03/29 10:24:42;;;;;;;9.20;3.00;;;;;;;15.89;72.54;99146.89;110050;1272;22423;-52
2024/03/29 10:27:09;;;;;;;11.40;2.80;;;;;;;15.88;73.12;99145.52;110063;1272;22450;-45
2024/03/29 10:29:37;;;;;;;9.30;3.20;;;;;;;15.84;72.84;99165.19;110046;1270;22441;-53
2024/03/29 10:32:05;;;;;;;9.20;4.10;;;;;;;15.79;74.72;99161.17;110039;1272;23265;-47
2024/03/29 10:34:35;;;;;;;7.50;4.10;;;;;;;15.73;75.79;99155.07;109970;1276;22437;-52
2024/03/29 10:37:03;;;;;;;14.80;3.70;;;;;;;15.68;76.00;99156.16;109935;1272;22466;-54
2024/03/29 10:39:31;;;;;;;10.60;4.40;;;;;;;15.62;76.30;99161.27;109824;1275;23540;-53
2024/03/29 10:41:59;;;;;;;7.00;3.00;;;;;;;15.56;77.16;99175.73;109796;1270;22214;-53
2024/03/29 10:44:26;;;;;;;5.30;2.30;;;;;;;15.45;80.57;99193.71;109857;1276;22257;-53
2024/03/29 10:46:56;;;;;;;5.20;2.40;;;;;;;15.18;86.30;99224.04;110077;1276;23173;-54
2024/03/29 10:49:23;;;;;;;9.80;2.80;;;;;;;14.58;92.38;99232.04;109902;1274;23340;-60
2024/03/29 10:51:56;;;;;;;14.30;3.40;;;;;;;13.89;98.71;99226.85;109812;1272;22393;-51
2024/03/29 10:54:24;;;;;;;6.90;2.50;;;;;;;13.28;100.00;99235.45;109603;1276;22197;-50
2024/03/29 10:57:06;;;;;;;5.70;2.40;;;;;;;12.88;100.00;99246.32;110029;1276;22385;-58
2024/03/29 10:59:54;;;;;;;8.60;2.50;;;;;;;12.62;100.00;99208.68;110155;1276;22273;-49
2024/03/29 11:02:34;;;;;;;9.10;2.10;;;;;;;12.46;100.00;99172.52;110019;1276;22628;-47
2024/03/29 11:05:06;;;;;;;6.20;2.20;;;;;;;12.40;100.00;99175.81;110206;1276;23031;-50
2024/03/29 11:07:34;;;;;;;6.70;2.90;;;;;;;12.40;100.00;99181.41;108782;1276;23945;-49
2024/03/29 11:10:04;;;;;;;5.20;2.40;;;;;;;12.44;100.00;99177.48;107322;1276;25258;-49
2024/03/29 11:12:39;;;;;;;5.40;2.70;;;;;;;12.51;100.00;99165.75;107791;1276;22529;-57
2024/03/29 11:15:11;;;;;;;4.10;1.90;;;;;;;12.62;100.00;99151.46;108793;1270;23305;-57
2024/03/29 11:17:38;;;;;;;3.90;2.10;;;;;;;12.75;100.00;99144.98;107874;1276;22523;-47
2024/03/29 11:20:06;;;;;;;8.90;2.00;;;;;;;12.95;100.00;99138.67;106587;1277;25451;-55
2024/03/29 11:22:34;;;;;;;5.30;2.10;;;;;;;13.38;100.00;99129.59;108095;1276;25369;-48
2024/03/29 11:25:03;;;;;;;5.00;1.80;;;;;;;13.99;100.00;99119.98;108543;1265;22519;-57
2024/03/29 11:27:31;;;;;;;2.10;1.10;;;;;;;14.77;100.00;99115.76;109494;1273;22914;-57
2024/03/29 11:29:58;;;;;;;3.90;1.50;;;;;;;15.46;100.00;99107.06;107406;1276;22526;-55
2024/03/29 11:32:39;;;;;;;4.40;1.10;;;;;;;16.06;95.42;99090.96;107555;1276;22206;-56
2024/03/29 11:35:14;;;;;;;4.90;1.20;;;;;;;16.64;91.15;99082.55;109912;1272;22374;-56
2024/03/29 11:37:41;;;;;;;5.70;1.40;;;;;;;17.08;88.65;99084.45;109964;1269;22330;-57
2024/03/29 11:40:12;;;;;;;7.10;1.40;;;;;;;17.36;84.46;99081.37;109833;1271;22633;-50
2024/03/29 11:42:46;;;;;;;3.50;1.30;;;;;;;17.59;81.31;99078.55;109938;1272;22368;-48
2024/03/29 11:45:14;;;;;;;2.90;1.10;;;;;;;17.82;80.73;99073.91;109940;1271;22475;-49
2024/03/29 11:47:41;;;;;;;4.40;1.30;;;;;;;17.92;77.37;99066.05;108235;1276;22530;-51
2024/03/29 11:50:11;;;;;;;3.50;1.20;;;;;;;17.71;76.38;99062.45;106971;1276;23270;-48
2024/03/29 11:52:38;;;;;;;3.20;1.20;;;;;;;17.37;75.38;99063.87;107701;1276;22395;-48
2024/03/29 11:55:07;;;;;;;4.20;1.40;;;;;;;17.02;76.72;99065.89;109338;1276;23382;-48
2024/03/29 11:57:38;;;;;;;4.70;1.50;;;;;;;16.71;78.23;99076.22;109558;1276;26649;-48
2024/03/29 12:00:07;;;;;;;15.60;2.60;;;;;;;16.44;79.68;99078.45;108544;1276;22541;-49
2024/03/29 12:02:34;;;;;;;11.40;2.20;;;;;;;16.19;80.82;99070.89;108072;1269;22493;-55
2024/03/29 12:05:08;;;;;;;7.50;2.20;;;;;;;15.98;82.44;99083.21;109483;1272;23362;-56
2024/03/29 12:07:35;;;;;;;5.60;2.10;;;;;;;15.88;83.96;99096.48;110032;1276;23401;-55
2024/03/29 12:10:03;;;;;;;6.40;2.60;;;;;;;15.83;85.82;99100.52;110203;1276;22209;-56
2024/03/29 12:12:35;;;;;;;8.20;2.40;;;;;;;15.88;87.76;99101.56;110019;1271;22338;-47
2024/03/29 12:15:05;;;;;;;4.70;2.10;;;;;;;16.09;88.12;99110.04;109866;1272;22158;-48
2024/03/29 12:17:32;;;;;;;4.40;1.80;;;;;;;16.37;88.49;99112.89;109527;1276;22294;-47
2024/03/29 12:20:10;;;;;;;9.20;1.90;;;;;;;16.61;88.65;99115.02;110183;1276;22432;-56
2024/03/29 12:22:38;;;;;;;3.60;0.80;;;;;;;16.72;80.82;99128.46;110055;1276;23138;-49
2024/03/29 12:25:05;;;;;;;0.30;0.30;;;;;;;16.70;75.20;99119.06;109963;1272;22505;-47
2024/03/29 12:27:33;;;;;;;0.40;0.30;;;;;;;16.70;76.79;99117.27;110227;1272;22287;-47
2024/03/29 12:30:00;;;;;;;0.70;0.30;;;;;;;16.80;77.23;99128.85;109947;1276;25381;-50
2024/03/29 12:32:29;;;;;;;0.40;0.40;;;;;;;16.83;76.19;99125.91;109711;1276;22548;-47
2024/03/29 12:35:12;;;;;;;0.40;0.30;;;;;;;16.73;76.07;99123.17;109966;1269;22411;-48
2024/03/29 12:37:53;;;;;;;1.10;0.40;;;;;;;16.57;77.21;99128.05;109761;1272;22467;-49
2024/03/29 12:40:23;;;;;;;1.00;0.30;;;;;;;16.39;78.04;99134.96;107545;1276;22586;-49
2024/03/29 12:42:51;;;;;;;1.50;0.40;;;;;;;16.22;77.77;99144.83;107978;1272;22420;-50
2024/03/29 12:45:19;;;;;;;1.70;0.40;;;;;;;16.02;77.63;99155.33;107751;1276;22554;-47
2024/03/29 12:47:47;;;;;;;0.30;0.30;;;;;;;15.82;78.96;99169.13;106877;1276;22571;-57
2024/03/29 12:50:20;;;;;;;1.00;0.50;;;;;;;15.63;77.63;99170.71;108701;1277;22618;-55
2024/03/29 12:52:47;;;;;;;0.80;0.30;;;;;;;15.45;79.06;99162.09;107033;1277;22530;-48
2024/03/29 12:55:18;;;;;;;3.10;0.40;;;;;;;15.26;80.63;99181.75;107163;1276;25271;-47
2024/03/29 12:57:45;;;;;;;0.30;0.20;;;;;;;15.07;81.18;99220.94;109407;1276;23309;-53
2024/03/29 13:00:13;;;;;;;4.70;0.90;;;;;;;14.84;78.68;99218.74;110062;1276;22309;-48
2024/03/29 13:02:41;;;;;;;1.10;0.50;;;;;;;14.64;79.52;99228.89;107602;1260;24199;-55
2024/03/29 13:05:08;;;;;;;0.70;0.30;;;;;;;14.68;80.63;99216.84;108434;1276;22531;-54
2024/03/29 13:07:36;;;;;;;2.80;0.30;;;;;;;14.86;81.68;99218.46;108968;1276;22583;-54
2024/03/29 13:10:10;;;;;;;0.80;0.50;;;;;;;15.11;84.22;99212.52;108450;1276;23029;-49
